This is the latest recevied weather packets stored in our database for station/object N2XP. If no packets are shown the sender has not sent any weather packets the latest 10 day(s).
| Time | Temp. | Humidity | Pressure | Rain* | Wind** | Luminosity | Snow |
|---|---|---|---|---|---|---|---|
| 1777897844 | 10.56° C | 60% | 1012.3 hPa | 0 mm | - | - | - |
| 1777896956 | 10° C | 62% | 1012.3 hPa | 0 mm | - | - | - |
| 1777896042 | 8.89° C | 64% | 1012.3 hPa | 0 mm | - | - | - |
| 1777895129 | 8.33° C | 71% | 1012.3 hPa | 0 mm | - | - | - |
| 1777894225 | 7.78° C | 72% | 1012.3 hPa | 0 mm | - | - | - |
| 1777893322 | 6.11° C | 74% | 1012.3 hPa | 0 mm | - | - | - |
| 1777892418 | 5° C | 82% | 1012.3 hPa | 0 mm | - | - | - |
| 1777891519 | 3.89° C | 81% | 1012.3 hPa | 0 mm | - | - | - |
| 1777890619 | 3.89° C | 80% | 1012.3 hPa | 0 mm | - | - | - |
| 1777889718 | 3.89° C | 81% | 1012.3 hPa | 0 mm | - | - | - |
| 1777888821 | 3.33° C | 82% | 1012.1 hPa | 0 mm | - | - | - |
| 1777887913 | 3.33° C | 83% | 1012.1 hPa | 0 mm | - | - | - |
| 1777887009 | 3.33° C | 83% | 1012 hPa | 0 mm | - | - | - |
| 1777886108 | 3.89° C | 83% | 1011.9 hPa | 0 mm | - | - | - |
| 1777885207 | 3.89° C | 82% | 1011.9 hPa | 0 mm | - | - | - |
| 1777884306 | 4.44° C | 81% | 1011.8 hPa | 0 mm | - | - | - |
| 1777883405 | 4.44° C | 80% | 1011.8 hPa | 0 mm | - | - | - |
| 1777882505 | 4.44° C | 79% | 1011.8 hPa | 0 mm | - | - | - |
| 1777881603 | 5° C | 79% | 1011.7 hPa | 0 mm | - | - | - |
| 1777880703 | 5° C | 79% | 1011.8 hPa | 0 mm | - | - | - |
| 1777879802 | 5° C | 80% | 1011.8 hPa | 0 mm | - | - | - |
| 1777878901 | 4.44° C | 81% | 1011.7 hPa | 0 mm | - | - | - |
| 1777878060 | 3.89° C | 82% | 1011.6 hPa | 0 mm | - | - | - |
| 1777877171 | 4.44° C | 80% | 1011.5 hPa | 0 mm | - | - | - |
| 1777876275 | 4.44° C | 80% | 1011.5 hPa | 0 mm | - | - | - |
* Rain latest hour (hover to see other rain measurements)
** Current wind speed in m/s (hover to see current wind gust speed)